Time;durP1;ratioP1;P1;durP2;ratioP2;P2;SDS_P1;SDS_P2;PMS_P1;PMS_P2;Temp;Humidity;BMP_temperature;BMP_pressure;BME280_temperature;BME280_humidity;BME280_pressure;Samples;Min_cycle;Max_cycle;Signal;HPM_P1;HPM_P2
2022/11/15 00:01:20;;;;;;;6.80;4.30;;;;;;;18.55;48.61;100618.94;4978664;28;20066;-60
2022/11/15 00:03:46;;;;;;;8.38;5.05;;;;;;;18.55;47.83;100610.81;4977458;28;20050;-60
2022/11/15 00:06:12;;;;;;;8.93;4.53;;;;;;;18.58;47.63;100626.72;4961665;28;20027;-60
2022/11/15 00:08:37;;;;;;;8.88;3.95;;;;;;;18.59;47.97;100617.56;4977883;28;20035;-60
2022/11/15 00:11:03;;;;;;;7.30;4.32;;;;;;;18.64;48.14;100625.13;4993793;28;20548;-60
2022/11/15 00:13:29;;;;;;;8.82;5.15;;;;;;;18.65;48.35;100615.97;4978877;28;20030;-60
2022/11/15 00:15:59;;;;;;;11.73;4.32;;;;;;;18.69;48.45;100620.84;4977284;28;20045;-60
2022/11/15 00:18:25;;;;;;;8.80;4.03;;;;;;;18.71;48.30;100618.78;4993676;28;20506;-60
2022/11/15 00:20:50;;;;;;;12.20;4.65;;;;;;;18.72;48.43;100617.75;4978084;28;20034;-60
2022/11/15 00:23:16;;;;;;;8.63;4.45;;;;;;;18.72;48.42;100617.75;4978576;28;20041;-60
2022/11/15 00:25:41;;;;;;;7.75;4.10;;;;;;;18.76;48.88;100613.63;4978117;28;20039;-60
2022/11/15 00:28:07;;;;;;;10.82;4.70;;;;;;;18.79;48.63;100610.53;4993444;28;20031;-60
2022/11/15 00:30:32;;;;;;;9.75;4.60;;;;;;;18.80;48.91;100609.50;4978320;28;20058;-61
2022/11/15 00:33:04;;;;;;;14.05;5.13;;;;;;;18.83;49.16;100617.28;4977736;28;20026;-60
2022/11/15 00:35:32;;;;;;;5.10;3.53;;;;;;;18.85;48.87;100611.66;4976380;28;20055;-60
2022/11/15 00:37:57;;;;;;;6.43;3.88;;;;;;;18.81;49.00;100600.34;4960204;28;20063;-61
2022/11/15 00:40:22;;;;;;;6.93;3.65;;;;;;;18.83;49.02;100603.72;4977029;28;20445;-61
2022/11/15 00:42:48;;;;;;;7.78;3.95;;;;;;;18.85;48.64;100604.34;4977199;28;20058;-60
2022/11/15 00:45:13;;;;;;;13.10;5.35;;;;;;;18.88;49.17;100606.69;4977041;28;20099;-61
2022/11/15 00:47:39;;;;;;;9.85;4.07;;;;;;;18.90;48.37;100607.34;4976698;28;20066;-60
2022/11/15 00:50:04;;;;;;;9.20;4.63;;;;;;;18.90;49.15;100610.06;4976802;28;20041;-61
2022/11/15 00:52:30;;;;;;;9.45;4.22;;;;;;;18.89;48.62;100604.84;4992973;28;20035;-60
2022/11/15 00:54:55;;;;;;;10.77;4.60;;;;;;;18.90;49.06;100604.63;4960974;28;20485;-60
2022/11/15 00:57:20;;;;;;;7.38;4.28;;;;;;;18.90;48.41;100603.81;4993630;28;20110;-61
2022/11/15 00:59:46;;;;;;;11.40;4.72;;;;;;;18.88;48.69;100595.84;4992894;28;20035;-60
2022/11/15 01:02:11;;;;;;;11.10;4.43;;;;;;;18.96;48.77;100603.88;4976493;28;20031;-60
2022/11/15 01:04:37;;;;;;;9.63;4.30;;;;;;;18.99;48.96;100608.09;4977378;28;20041;-60
2022/11/15 01:07:02;;;;;;;7.88;4.03;;;;;;;18.92;48.93;100601.75;4992698;28;20035;-60
2022/11/15 01:09:28;;;;;;;8.13;3.75;;;;;;;18.92;48.63;100589.00;4976727;28;20030;-60
2022/11/15 01:11:56;;;;;;;10.27;3.72;;;;;;;18.99;48.65;100595.34;4960600;28;20031;-60
2022/11/15 01:14:21;;;;;;;7.47;4.20;;;;;;;19.00;49.21;100594.34;4992177;28;20586;-61
2022/11/15 01:16:47;;;;;;;7.00;4.00;;;;;;;19.01;48.79;100579.72;4977687;28;20035;-60
2022/11/15 01:19:12;;;;;;;7.88;3.83;;;;;;;19.02;48.87;100586.84;4976542;28;20129;-60
2022/11/15 01:21:37;;;;;;;7.95;3.97;;;;;;;19.03;49.10;100588.53;4992038;28;20034;-60
2022/11/15 01:24:03;;;;;;;7.38;4.00;;;;;;;19.05;49.26;100594.59;4977704;28;20042;-60
2022/11/15 01:26:28;;;;;;;11.52;3.20;;;;;;;19.06;49.35;100584.59;4976983;28;20039;-60
2022/11/15 01:28:53;;;;;;;6.63;3.30;;;;;;;19.05;49.05;100575.59;4976314;28;20027;-60
2022/11/15 01:31:20;;;;;;;11.38;3.78;;;;;;;19.07;49.08;100573.53;4980110;28;20126;-61
2022/11/15 01:33:46;;;;;;;9.80;3.83;;;;;;;19.06;49.38;100577.28;4996613;28;20033;-60
2022/11/15 01:36:17;;;;;;;6.63;3.33;;;;;;;19.06;48.71;100569.16;4980597;28;20047;-60
2022/11/15 01:38:42;;;;;;;8.60;3.70;;;;;;;19.06;49.32;100571.88;4969015;28;20038;-60
2022/11/15 01:41:18;;;;;;;6.50;3.50;;;;;;;19.05;49.23;100564.75;5000889;28;20039;-60
2022/11/15 01:43:44;;;;;;;11.43;3.60;;;;;;;19.02;48.90;100565.13;4999871;28;20026;-60
2022/11/15 01:46:21;;;;;;;6.88;3.50;;;;;;;19.03;49.17;100564.09;4999647;28;20049;-60
2022/11/15 01:48:47;;;;;;;7.90;3.22;;;;;;;19.05;49.33;100564.75;4999438;28;20121;-60
2022/11/15 01:51:13;;;;;;;6.55;3.50;;;;;;;19.07;49.52;100557.22;4999402;28;20026;-60
2022/11/15 01:53:41;;;;;;;10.75;3.30;;;;;;;19.10;49.52;100562.28;4999224;28;20034;-61
2022/11/15 01:56:08;;;;;;;6.00;3.15;;;;;;;19.10;49.24;100559.56;4983263;28;20530;-60
2022/11/15 01:58:34;;;;;;;4.28;2.90;;;;;;;19.13;49.37;100564.63;4982621;28;20066;-60
2022/11/15 02:00:59;;;;;;;6.07;3.67;;;;;;;19.16;49.18;100555.25;4982606;28;20034;-60
2022/11/15 02:03:34;;;;;;;7.00;2.83;;;;;;;19.21;49.46;100558.22;4999276;28;20034;-60
2022/11/15 02:05:59;;;;;;;5.40;3.28;;;;;;;19.26;49.33;100563.09;4983081;28;20381;-60
2022/11/15 02:08:25;;;;;;;6.60;3.22;;;;;;;19.28;48.91;100569.19;4999207;28;20118;-60
2022/11/15 02:10:50;;;;;;;5.25;3.22;;;;;;;19.28;49.11;100563.75;4982976;28;20046;-61
2022/11/15 02:13:16;;;;;;;9.13;2.83;;;;;;;19.33;48.94;100561.28;4999891;28;20440;-60
2022/11/15 02:15:59;;;;;;;7.13;3.75;;;;;;;19.33;49.07;100558.56;4982480;28;20030;-60
2022/11/15 02:18:34;;;;;;;4.68;2.75;;;;;;;19.36;48.94;100563.63;4998937;28;20443;-61
2022/11/15 02:21:14;;;;;;;5.57;2.80;;;;;;;19.36;49.35;100556.31;4998863;28;20054;-60
2022/11/15 02:24:01;;;;;;;4.90;2.92;;;;;;;19.34;49.15;100563.84;4998805;28;20045;-60
2022/11/15 02:27:04;;;;;;;6.97;3.03;;;;;;;19.36;49.30;100555.47;4999970;28;20508;-60
2022/11/15 02:29:40;;;;;;;7.28;3.28;;;;;;;19.35;48.94;100553.78;4998430;28;20407;-61
2022/11/15 02:32:18;;;;;;;8.48;2.85;;;;;;;19.33;49.07;100547.72;4983026;28;20057;-60
2022/11/15 02:35:02;;;;;;;6.03;2.90;;;;;;;19.34;49.27;100550.25;4982124;28;20041;-60
2022/11/15 02:37:39;;;;;;;9.02;2.42;;;;;;;19.33;48.94;100556.69;4998541;28;20500;-60
2022/11/15 02:40:20;;;;;;;5.20;3.22;;;;;;;19.33;49.49;100555.84;4981633;28;20105;-60
2022/11/15 02:45:44;;;;;;;5.15;3.08;;;;;;;19.28;49.79;100533.88;4998598;28;20037;-61
2022/11/15 02:48:10;;;;;;;8.00;3.00;;;;;;;19.28;49.43;100536.59;4982062;28;20485;-60
2022/11/15 02:50:35;;;;;;;4.30;2.78;;;;;;;19.28;49.77;100539.31;4982162;28;20026;-60
2022/11/15 02:53:01;;;;;;;6.10;3.08;;;;;;;19.32;49.61;100535.19;4998291;28;20038;-60
2022/11/15 02:55:30;;;;;;;8.27;3.47;;;;;;;19.33;49.36;100529.53;4999864;28;20455;-60
2022/11/15 02:58:07;;;;;;;5.78;2.80;;;;;;;19.34;49.94;100538.53;4999525;28;20026;-60
2022/11/15 03:00:41;;;;;;;8.13;2.80;;;;;;;19.32;49.46;100527.84;4999330;28;20026;-61
2022/11/15 03:03:30;;;;;;;5.43;2.65;;;;;;;19.34;49.61;100527.66;4998977;28;20026;-60
2022/11/15 03:06:34;;;;;;;6.63;2.90;;;;;;;19.34;49.59;100524.94;4998399;28;20035;-60
2022/11/15 03:09:09;;;;;;;5.82;2.83;;;;;;;19.33;49.69;100513.25;4885716;29;20620;-60
2022/11/15 03:11:40;;;;;;;7.38;3.28;;;;;;;19.34;49.65;100514.09;4901061;29;20044;-60
2022/11/15 03:14:20;;;;;;;7.40;3.15;;;;;;;19.38;49.61;100520.78;4885617;29;20040;-60
2022/11/15 03:16:49;;;;;;;7.43;3.47;;;;;;;19.35;49.54;100513.03;4901197;29;20064;-60
2022/11/15 03:19:37;;;;;;;6.22;2.63;;;;;;;19.39;49.84;100508.94;4901285;29;20041;-60
2022/11/15 03:22:05;;;;;;;5.93;3.20;;;;;;;19.38;49.74;100505.38;4898600;29;20123;-60
2022/11/15 03:24:32;;;;;;;4.53;2.85;;;;;;;19.40;50.13;100497.06;4885528;29;20444;-60
2022/11/15 03:26:59;;;;;;;6.63;2.97;;;;;;;19.37;50.09;100497.41;4885394;29;20056;-60
2022/11/15 03:29:28;;;;;;;7.75;3.22;;;;;;;19.37;50.13;100502.84;4900532;29;20116;-60
2022/11/15 03:32:03;;;;;;;3.70;2.83;;;;;;;19.32;49.69;100497.97;4900832;29;20132;-60
2022/11/15 03:34:31;;;;;;;4.57;2.28;;;;;;;19.32;50.33;100491.72;4900618;29;20060;-60
2022/11/15 03:36:56;;;;;;;5.75;2.97;;;;;;;19.32;49.96;100491.72;4900859;29;20496;-60
2022/11/15 03:39:22;;;;;;;4.38;2.65;;;;;;;19.30;49.98;100496.47;4901040;29;20043;-61
2022/11/15 03:41:55;;;;;;;6.65;2.85;;;;;;;19.29;49.74;100492.09;4904845;28;20037;-60
2022/11/15 03:44:29;;;;;;;3.78;2.35;;;;;;;19.29;50.11;100489.38;4997345;28;20031;-60
2022/11/15 03:47:02;;;;;;;4.70;2.10;;;;;;;19.26;50.23;100500.63;4998151;28;20404;-60
2022/11/15 03:49:32;;;;;;;4.40;2.05;;;;;;;19.29;50.13;100505.69;4996982;28;20065;-60
2022/11/15 03:51:58;;;;;;;6.97;3.40;;;;;;;19.28;50.44;100504.00;4997092;28;20038;-60
2022/11/15 03:54:24;;;;;;;6.13;2.55;;;;;;;19.31;50.39;100504.44;4996354;28;20026;-61
2022/11/15 03:56:49;;;;;;;3.30;2.13;;;;;;;19.28;49.88;100498.56;4998357;28;20061;-60
2022/11/15 03:59:14;;;;;;;5.93;2.13;;;;;;;19.33;49.69;100499.66;4980707;28;20420;-60
2022/11/15 04:01:40;;;;;;;6.60;2.25;;;;;;;19.36;50.36;100506.56;4997714;28;20038;-61
2022/11/15 04:04:05;;;;;;;5.20;2.33;;;;;;;19.37;49.58;100502.84;4996864;28;20050;-60
2022/11/15 04:06:30;;;;;;;3.33;1.92;;;;;;;19.35;50.07;100494.88;4964552;28;20061;-60
2022/11/15 04:08:56;;;;;;;2.40;1.77;;;;;;;19.38;50.17;100499.06;4996529;28;20065;-60
2022/11/15 04:11:21;;;;;;;5.60;2.40;;;;;;;19.36;50.35;100493.00;4997651;28;20064;-61
2022/11/15 04:13:47;;;;;;;4.57;1.98;;;;;;;19.36;50.72;100490.28;4980242;28;20076;-61
2022/11/15 04:16:12;;;;;;;5.15;2.25;;;;;;;19.35;50.05;100489.44;4997340;28;20049;-60
2022/11/15 04:18:37;;;;;;;3.53;1.90;;;;;;;19.38;50.32;100489.06;4997516;28;20030;-60
2022/11/15 04:26:30;;;;;;;3.70;1.55;;;;;;;19.40;50.30;100492.44;4996496;28;20389;-60
2022/11/15 04:31:39;;;;;;;3.58;1.88;;;;;;;19.37;50.40;100486.53;4996446;28;20045;-60
2022/11/15 04:34:05;;;;;;;8.77;2.00;;;;;;;19.40;49.77;100494.34;4979622;28;20038;-60
2022/11/15 04:39:14;;;;;;;2.45;1.67;;;;;;;19.40;49.77;100488.91;4982856;28;20100;-61
2022/11/15 04:41:39;;;;;;;2.28;1.75;;;;;;;19.40;50.00;100497.88;4995917;28;20077;-60
2022/11/15 04:44:05;;;;;;;4.72;2.17;;;;;;;19.42;50.45;100500.41;4997472;28;20381;-60
2022/11/15 04:46:30;;;;;;;3.45;1.80;;;;;;;19.42;50.01;100494.97;4995502;28;20038;-61
2022/11/15 04:48:56;;;;;;;1.88;1.70;;;;;;;19.41;49.88;100498.72;4995811;28;20034;-60
2022/11/15 04:51:21;;;;;;;2.42;1.60;;;;;;;19.42;49.94;100500.41;4979664;28;20377;-60
2022/11/15 04:53:46;;;;;;;4.68;2.25;;;;;;;19.43;49.66;100504.81;4997006;28;20093;-60
2022/11/15 04:56:12;;;;;;;3.80;2.20;;;;;;;19.41;50.04;100493.28;4995680;28;20039;-60
2022/11/15 04:58:38;;;;;;;2.92;1.55;;;;;;;19.44;50.04;100503.75;4995768;28;20034;-60
2022/11/15 05:01:10;;;;;;;4.22;1.85;;;;;;;19.44;49.98;100492.91;4995970;28;20117;-61
2022/11/15 05:06:20;;;;;;;5.68;2.38;;;;;;;19.44;50.45;100492.91;4995619;28;20037;-60
2022/11/15 05:08:45;;;;;;;4.22;2.00;;;;;;;19.45;49.98;100489.16;4979430;28;20026;-61
2022/11/15 05:11:10;;;;;;;7.63;2.30;;;;;;;19.41;50.10;100491.41;4996841;28;20035;-60
2022/11/15 05:13:36;;;;;;;2.05;1.70;;;;;;;19.44;50.41;100504.59;4979346;28;20419;-60
2022/11/15 05:16:01;;;;;;;2.25;1.10;;;;;;;19.42;50.73;100490.38;4996783;28;20038;-61
2022/11/15 05:18:26;;;;;;;3.90;1.65;;;;;;;19.42;50.58;100495.81;4997047;28;20026;-61
2022/11/15 05:20:52;;;;;;;1.58;1.27;;;;;;;19.40;50.42;100500.59;4994942;28;20034;-61
2022/11/15 05:23:17;;;;;;;3.08;1.27;;;;;;;19.37;50.93;100497.41;4996496;28;20066;-60
2022/11/15 05:25:43;;;;;;;1.75;0.95;;;;;;;19.29;50.86;100489.38;4962937;28;20042;-60
2022/11/15 05:28:08;;;;;;;2.17;1.00;;;;;;;19.24;51.14;100497.25;4995112;28;20085;-61
2022/11/15 05:30:33;;;;;;;3.30;1.27;;;;;;;19.15;51.17;100494.66;4978447;28;20038;-61
2022/11/15 05:32:59;;;;;;;1.55;0.98;;;;;;;19.08;51.20;100487.50;4978547;28;20034;-60
2022/11/15 05:35:39;;;;;;;3.45;1.00;;;;;;;19.05;51.29;100494.16;4994230;28;20037;-60
2022/11/15 05:38:04;;;;;;;1.85;1.10;;;;;;;18.97;51.18;100486.13;4978118;28;20037;-61
2022/11/15 05:40:30;;;;;;;1.63;0.90;;;;;;;19.00;51.23;100502.03;4978017;28;20125;-60
2022/11/15 05:42:56;;;;;;;2.30;1.13;;;;;;;18.96;51.69;100489.00;4994756;28;20036;-60
2022/11/15 05:45:21;;;;;;;1.55;0.88;;;;;;;18.96;51.55;100494.44;4978738;28;20022;-61
2022/11/15 05:47:47;;;;;;;3.75;0.80;;;;;;;18.98;51.38;100504.06;4994292;28;20037;-61
2022/11/15 05:50:14;;;;;;;2.58;1.42;;;;;;;18.94;51.85;100508.22;4977107;28;20039;-61
2022/11/15 05:52:39;;;;;;;1.98;1.35;;;;;;;18.92;51.92;100518.44;4976607;28;20226;-61
2022/11/15 05:55:06;;;;;;;3.55;1.48;;;;;;;18.88;52.41;100525.25;4994169;28;20038;-61
2022/11/15 05:57:31;;;;;;;2.45;1.13;;;;;;;18.84;51.96;100540.25;4992110;28;20026;-63
2022/11/15 05:59:57;;;;;;;0.57;0.50;;;;;;;18.73;51.44;100529.03;4982592;28;20023;-61
2022/11/15 06:02:22;;;;;;;0.88;0.70;;;;;;;18.68;52.04;100535.03;4981992;28;20403;-61
2022/11/15 06:04:47;;;;;;;1.52;0.68;;;;;;;18.64;51.94;100536.44;4968022;28;20034;-61
2022/11/15 06:07:13;;;;;;;0.98;0.60;;;;;;;18.62;51.80;100530.34;4967277;28;20058;-61
2022/11/15 06:09:38;;;;;;;0.70;0.55;;;;;;;18.59;51.40;100520.72;4983899;28;20340;-60
2022/11/15 06:12:04;;;;;;;1.08;0.80;;;;;;;18.60;51.71;100527.00;4982181;28;20029;-60
2022/11/15 06:14:29;;;;;;;0.63;0.57;;;;;;;18.58;50.87;100535.31;4983695;28;20463;-61
2022/11/15 06:16:55;;;;;;;1.65;0.40;;;;;;;18.59;51.58;100530.75;4978464;28;20117;-60
2022/11/15 06:19:20;;;;;;;1.92;0.60;;;;;;;18.61;51.20;100539.53;4980880;28;20053;-61
2022/11/15 06:21:45;;;;;;;0.90;0.60;;;;;;;18.61;51.08;100531.41;4998258;28;20463;-60
2022/11/15 06:24:11;;;;;;;2.50;0.75;;;;;;;18.62;50.68;100535.78;5000847;28;20018;-60
2022/11/15 06:26:36;;;;;;;1.48;1.15;;;;;;;18.63;51.00;100532.03;4999561;28;20120;-61
2022/11/15 06:29:03;;;;;;;1.30;0.95;;;;;;;18.63;50.51;100532.03;5000562;28;20491;-61
2022/11/15 06:31:29;;;;;;;1.45;0.63;;;;;;;18.60;51.11;100537.84;5000331;28;20084;-62
2022/11/15 06:33:54;;;;;;;1.42;0.60;;;;;;;18.55;50.78;100540.28;5000225;28;20113;-61
2022/11/15 06:36:20;;;;;;;1.70;0.88;;;;;;;18.53;51.04;100539.63;5003424;28;20110;-60
2022/11/15 06:38:46;;;;;;;0.95;0.75;;;;;;;18.53;50.88;100542.34;5003493;28;20035;-60
2022/11/15 06:41:13;;;;;;;2.50;0.80;;;;;;;18.54;51.14;100544.00;4985458;28;20408;-59
2022/11/15 06:43:39;;;;;;;1.15;0.95;;;;;;;18.53;50.67;100547.78;5005914;28;20034;-60
2022/11/15 06:46:05;;;;;;;2.58;0.95;;;;;;;18.51;50.97;100552.53;4985935;28;20117;-60
2022/11/15 06:48:32;;;;;;;1.88;0.90;;;;;;;18.45;49.99;100553.25;5002207;28;20391;-60
2022/11/15 06:51:00;;;;;;;1.35;1.25;;;;;;;18.43;50.70;100563.44;5002688;28;20038;-60
2022/11/15 06:53:26;;;;;;;2.28;1.20;;;;;;;18.39;51.54;100562.13;5001927;28;20400;-60
2022/11/15 06:55:52;;;;;;;3.20;1.60;;;;;;;18.35;50.88;100566.25;5001710;28;20061;-60
2022/11/15 06:58:18;;;;;;;2.05;1.17;;;;;;;18.32;50.70;100567.44;5001564;28;20031;-60
2022/11/15 07:00:43;;;;;;;2.17;1.15;;;;;;;18.31;50.70;100568.50;5001783;28;20019;-60
2022/11/15 07:03:09;;;;;;;4.10;1.25;;;;;;;18.29;50.87;100566.97;5003088;28;20022;-60
2022/11/15 07:05:35;;;;;;;3.05;1.13;;;;;;;18.25;50.14;100563.81;5001651;28;20072;-60
2022/11/15 07:08:00;;;;;;;5.50;1.00;;;;;;;18.22;50.29;100575.03;5001390;28;20133;-60
2022/11/15 07:10:26;;;;;;;1.80;0.95;;;;;;;18.19;50.64;100561.00;4985832;28;20027;-60
2022/11/15 07:12:52;;;;;;;3.50;1.20;;;;;;;18.19;49.83;100571.84;4985445;28;20403;-60
2022/11/15 07:15:19;;;;;;;2.35;1.17;;;;;;;18.16;49.97;100581.19;4986213;28;20117;-61
2022/11/15 07:17:44;;;;;;;3.60;1.55;;;;;;;18.17;50.64;100576.59;5001609;28;20069;-60
2022/11/15 07:20:11;;;;;;;2.65;0.93;;;;;;;18.16;50.81;100577.63;5001748;28;20432;-60
2022/11/15 07:22:36;;;;;;;4.38;1.23;;;;;;;18.16;50.84;100572.19;4985977;28;20026;-60
2022/11/15 07:25:02;;;;;;;3.58;1.10;;;;;;;18.16;50.05;100578.47;5002518;28;20065;-60
2022/11/15 07:27:28;;;;;;;1.23;0.75;;;;;;;18.15;50.29;100575.94;5002070;28;20022;-60
2022/11/15 07:29:53;;;;;;;5.18;1.30;;;;;;;18.17;50.58;100573.91;5002191;28;20404;-60
2022/11/15 07:32:18;;;;;;;5.78;1.00;;;;;;;18.20;51.12;100581.66;5002796;28;20032;-59
2022/11/15 07:34:45;;;;;;;1.70;0.68;;;;;;;18.24;50.15;100572.13;5002229;28;20042;-59
2022/11/15 07:37:11;;;;;;;1.98;0.70;;;;;;;18.25;50.81;100573.81;5003159;28;20057;-59
2022/11/15 07:39:36;;;;;;;1.65;0.70;;;;;;;18.25;51.22;100580.09;5003321;28;20435;-60
2022/11/15 07:44:46;;;;;;;1.25;0.60;;;;;;;18.30;50.21;100576.81;5003001;28;20045;-59
2022/11/15 07:47:11;;;;;;;2.65;0.70;;;;;;;18.41;50.37;100570.91;4986285;28;20034;-60
2022/11/15 07:49:37;;;;;;;1.55;0.70;;;;;;;18.52;49.95;100568.63;4985412;28;20065;-60
2022/11/15 07:52:02;;;;;;;0.85;0.60;;;;;;;18.61;50.36;100566.66;5003371;28;20057;-59
2022/11/15 07:54:27;;;;;;;1.05;0.40;;;;;;;18.66;50.50;100566.94;5003649;28;20022;-59
2022/11/15 07:56:53;;;;;;;1.02;0.22;;;;;;;18.72;50.34;100568.91;5003401;28;20041;-59
2022/11/15 07:59:19;;;;;;;1.15;0.52;;;;;;;18.77;49.53;100566.47;5001428;28;20030;-59
2022/11/15 08:01:45;;;;;;;0.75;0.60;;;;;;;18.82;49.94;100564.00;5002079;28;20026;-59
2022/11/15 08:04:10;;;;;;;0.45;0.40;;;;;;;18.87;49.71;100561.56;5003307;28;20050;-59
2022/11/15 08:06:36;;;;;;;3.42;0.70;;;;;;;18.90;49.47;100563.91;5001773;28;20046;-59
2022/11/15 08:09:01;;;;;;;1.48;0.65;;;;;;;18.90;49.61;100566.63;4986724;28;20022;-59
2022/11/15 08:11:27;;;;;;;2.67;0.70;;;;;;;18.92;49.49;100570.00;5002377;28;20035;-59
2022/11/15 08:13:52;;;;;;;3.00;0.75;;;;;;;18.92;49.76;100578.16;4985658;28;20030;-59
2022/11/15 08:16:17;;;;;;;3.08;0.60;;;;;;;18.91;49.42;100572.91;4985517;28;20506;-59
2022/11/15 08:18:43;;;;;;;1.52;0.50;;;;;;;18.94;49.36;100586.94;5001932;28;20026;-59
2022/11/15 08:21:09;;;;;;;2.95;0.57;;;;;;;18.96;49.36;100587.59;5003611;28;20037;-59
2022/11/15 08:23:35;;;;;;;1.25;1.08;;;;;;;18.99;49.08;100581.78;4986171;28;20072;-59
2022/11/15 08:26:04;;;;;;;1.58;0.82;;;;;;;19.03;49.41;100583.09;5003483;28;20102;-59
2022/11/15 08:28:30;;;;;;;4.95;0.70;;;;;;;19.08;49.05;100588.78;4984741;28;20053;-59
2022/11/15 08:30:55;;;;;;;6.45;0.50;;;;;;;19.13;48.50;100582.78;4985394;28;20038;-59
2022/11/15 08:33:21;;;;;;;0.95;0.85;;;;;;;19.20;48.49;100583.72;5004257;28;20022;-59
2022/11/15 08:35:46;;;;;;;1.38;0.50;;;;;;;19.26;48.50;100576.69;5002619;28;20050;-60
2022/11/15 08:38:12;;;;;;;0.65;0.60;;;;;;;19.34;48.23;100573.84;5001520;28;20045;-59
2022/11/15 08:40:38;;;;;;;0.57;0.47;;;;;;;19.40;47.70;100552.19;5000503;28;20034;-59
2022/11/15 08:43:03;;;;;;;3.03;0.70;;;;;;;19.51;47.80;100559.03;4999511;28;20036;-59
2022/11/15 08:45:29;;;;;;;4.65;0.57;;;;;;;19.61;47.93;100557.66;4999816;28;20022;-60
2022/11/15 08:47:55;;;;;;;1.38;0.73;;;;;;;19.66;47.54;100543.47;5000444;28;20515;-60
2022/11/15 08:50:21;;;;;;;0.35;0.35;;;;;;;19.69;47.23;100545.81;4982958;28;20034;-59
2022/11/15 08:52:47;;;;;;;3.53;0.88;;;;;;;19.71;47.17;100538.28;5000895;28;20483;-59
2022/11/15 08:55:13;;;;;;;1.00;0.50;;;;;;;19.82;46.53;100540.47;4999938;28;20041;-59
2022/11/15 08:57:38;;;;;;;1.95;1.17;;;;;;;19.86;46.59;100546.38;5001088;28;20022;-59
2022/11/15 09:00:04;;;;;;;4.80;0.60;;;;;;;19.89;46.56;100546.81;4983734;28;20028;-59
2022/11/15 09:02:30;;;;;;;3.65;0.80;;;;;;;19.98;46.91;100540.22;4999838;28;20045;-59
2022/11/15 09:04:55;;;;;;;2.00;0.63;;;;;;;20.05;45.94;100532.94;4983507;28;20125;-59
2022/11/15 09:07:20;;;;;;;2.03;0.70;;;;;;;20.17;45.74;100535.97;4999655;28;20377;-59
2022/11/15 09:09:49;;;;;;;4.13;0.77;;;;;;;20.18;45.77;100535.75;4999740;28;20046;-59
2022/11/15 09:12:14;;;;;;;0.75;0.60;;;;;;;20.21;45.99;100524.47;5001068;28;20076;-59
2022/11/15 09:14:39;;;;;;;3.97;0.47;;;;;;;20.44;45.11;100518.78;5000477;28;20567;-59
2022/11/15 09:17:08;;;;;;;1.55;0.68;;;;;;;20.83;44.42;100510.81;4999497;28;20049;-59
2022/11/15 09:19:33;;;;;;;2.40;0.40;;;;;;;21.20;43.92;100504.06;4998922;28;20089;-59
2022/11/15 09:21:59;;;;;;;3.25;1.40;;;;;;;21.67;44.12;100499.50;4999535;28;20062;-59
2022/11/15 09:24:24;;;;;;;0.93;0.60;;;;;;;22.16;42.57;100493.66;4983337;28;20365;-60
2022/11/15 09:26:51;;;;;;;3.60;0.68;;;;;;;22.57;42.66;100492.28;4999148;28;20034;-61
2022/11/15 09:29:17;;;;;;;8.70;0.60;;;;;;;22.92;41.86;100495.50;4999749;28;20022;-61
2022/11/15 09:31:42;;;;;;;1.88;0.60;;;;;;;23.27;40.86;100498.69;4999413;28;20094;-61
2022/11/15 09:34:08;;;;;;;5.00;0.45;;;;;;;23.58;41.08;100495.16;5000145;28;20481;-61
2022/11/15 09:36:33;;;;;;;1.88;0.68;;;;;;;23.59;41.12;100486.72;4999350;28;20038;-60
2022/11/15 09:38:59;;;;;;;4.63;0.50;;;;;;;23.42;40.89;100482.84;4999972;28;20082;-59
2022/11/15 09:41:33;;;;;;;1.40;0.20;;;;;;;23.58;40.98;100476.84;4983645;28;20030;-60
2022/11/15 09:44:45;;;;;;;5.38;0.65;;;;;;;23.94;40.07;100495.25;4999188;28;20030;-60
2022/11/15 09:47:22;;;;;;;1.05;0.47;;;;;;;24.24;40.22;100484.47;4986287;28;20050;-61
2022/11/15 09:49:53;;;;;;;0.55;0.40;;;;;;;24.38;39.72;100483.25;5000277;28;20125;-60
2022/11/15 09:52:19;;;;;;;2.30;0.32;;;;;;;24.48;39.57;100501.91;5003606;28;20555;-61
2022/11/15 09:54:48;;;;;;;0.82;0.40;;;;;;;24.43;39.53;100491.63;4987028;28;20053;-61
2022/11/15 09:57:16;;;;;;;0.73;0.30;;;;;;;24.27;39.44;100484.88;5004567;28;20443;-60
2022/11/15 10:00:00;;;;;;;2.35;0.75;;;;;;;24.06;39.06;100484.44;5002960;28;20057;-60
2022/11/15 10:03:13;;;;;;;0.55;0.35;;;;;;;24.03;40.04;100487.59;5004428;28;20030;-61
2022/11/15 10:05:40;;;;;;;;;;;;;;;24.00;39.19;100477.13;4983467;28;20404;-61
2022/11/15 10:08:24;;;;;;;0.20;0.20;;;;;;;23.94;40.12;100480.75;5003794;28;19921;-61
2022/11/15 10:10:57;;;;;;;0.98;0.25;;;;;;;23.89;39.59;100472.38;5004972;28;20065;-61
2022/11/15 10:13:25;;;;;;;1.25;0.55;;;;;;;23.87;39.07;100461.63;4987102;28;20036;-61
2022/11/15 10:15:53;;;;;;;0.68;0.35;;;;;;;23.63;38.72;100470.69;5003415;28;20484;-61
2022/11/15 10:18:19;;;;;;;2.50;0.30;;;;;;;23.34;39.48;100477.59;5003711;28;20057;-61
2022/11/15 10:21:12;;;;;;;0.52;0.30;;;;;;;22.91;39.22;100466.53;5003344;28;20066;-60
2022/11/15 10:23:38;;;;;;;1.20;0.45;;;;;;;22.68;39.48;100460.75;5002417;28;20027;-61
2022/11/15 10:26:08;;;;;;;1.45;0.43;;;;;;;22.92;39.46;100470.09;5002257;28;20500;-61
2022/11/15 10:28:33;;;;;;;3.88;0.30;;;;;;;23.55;39.02;100457.31;4986340;28;20033;-61
2022/11/15 10:31:04;;;;;;;1.45;0.40;;;;;;;24.12;38.04;100469.88;5003760;28;20038;-61
2022/11/15 10:33:31;;;;;;;3.05;0.40;;;;;;;23.90;37.77;100454.91;5004573;28;20130;-61
2022/11/15 10:36:12;;;;;;;1.35;0.45;;;;;;;23.45;39.00;100446.84;4985431;28;20051;-61
2022/11/15 10:38:49;;;;;;;1.08;0.40;;;;;;;23.30;38.53;100438.13;5003222;28;20043;-61
2022/11/15 10:41:27;;;;;;;1.40;0.35;;;;;;;23.35;38.94;100435.56;4992721;28;20099;-61
2022/11/15 10:44:01;;;;;;;1.08;0.32;;;;;;;23.55;37.73;100429.97;4982121;28;20031;-61
2022/11/15 10:46:26;;;;;;;1.65;0.40;;;;;;;23.90;37.41;100422.06;4983455;28;20114;-61
2022/11/15 10:48:52;;;;;;;1.08;0.40;;;;;;;24.27;37.62;100429.25;4982541;28;20110;-61
2022/11/15 10:51:27;;;;;;;1.45;0.82;;;;;;;24.67;37.06;100421.41;4983318;28;20046;-61
2022/11/15 10:53:54;;;;;;;2.67;0.32;;;;;;;24.99;36.76;100411.06;4983724;28;20027;-61
2022/11/15 10:56:21;;;;;;;4.38;1.05;;;;;;;25.28;36.05;100405.56;4966410;28;20046;-61
2022/11/15 10:58:52;;;;;;;1.67;0.30;;;;;;;25.57;36.02;100403.00;4965957;28;20038;-61
2022/11/15 11:01:20;;;;;;;2.13;0.28;;;;;;;25.75;36.14;100405.63;4981705;28;20042;-61
2022/11/15 11:04:07;;;;;;;0.80;0.40;;;;;;;25.69;35.62;100401.09;4972522;28;20054;-61
2022/11/15 11:06:52;;;;;;;0.90;0.25;;;;;;;25.55;35.89;100388.69;4965405;28;20444;-62
2022/11/15 11:09:42;;;;;;;6.55;0.45;;;;;;;25.52;35.54;100390.00;4982450;28;20026;-60
2022/11/15 11:12:11;;;;;;;5.85;0.60;;;;;;;25.16;36.04;100396.47;4965632;28;20089;-61
2022/11/15 11:14:38;;;;;;;2.40;0.40;;;;;;;24.78;36.29;100385.84;4981315;28;20066;-61
2022/11/15 11:17:15;;;;;;;0.20;0.20;;;;;;;24.46;36.21;100395.31;4981139;28;20035;-61
2022/11/15 11:20:07;;;;;;;0.73;0.28;;;;;;;24.02;36.52;100399.19;4982736;28;20409;-61
2022/11/15 11:22:47;;;;;;;1.45;0.20;;;;;;;23.67;36.52;100379.75;4973653;28;20035;-63
2022/11/15 11:25:26;;;;;;;0.88;0.32;;;;;;;23.45;37.20;100364.00;4981010;28;20412;-61
2022/11/15 11:28:20;;;;;;;3.28;0.65;;;;;;;23.29;36.51;100365.34;4983128;28;20039;-61
2022/11/15 11:30:56;;;;;;;2.50;0.45;;;;;;;23.06;36.76;100354.22;4981546;28;20026;-61
2022/11/15 11:33:33;;;;;;;2.47;0.50;;;;;;;22.91;37.17;100361.88;4981228;28;20026;-60
2022/11/15 11:35:59;;;;;;;0.45;0.20;;;;;;;22.82;37.81;100336.72;4965608;28;20189;-60
2022/11/15 11:38:45;;;;;;;2.08;0.50;;;;;;;22.73;37.88;100332.56;4981094;28;20094;-60
2022/11/15 11:41:41;;;;;;;1.45;0.20;;;;;;;22.60;37.10;100328.00;4981151;28;20092;-61
2022/11/15 11:44:28;;;;;;;4.57;0.65;;;;;;;22.49;36.76;100315.06;4981307;28;20467;-61
2022/11/15 11:46:53;;;;;;;0.50;0.30;;;;;;;22.47;36.67;100317.16;4981809;28;20042;-60
2022/11/15 11:49:26;;;;;;;1.75;0.75;;;;;;;22.58;37.74;100318.38;4981901;28;20038;-61
2022/11/15 11:52:01;;;;;;;0.93;0.40;;;;;;;22.62;37.38;100309.50;4964150;28;20035;-61